createdAt,value
2017-08-23T00:00:03.283Z,1017.1
2017-08-23T00:01:04.661Z,1017.1
2017-08-23T00:02:06.066Z,1017.1
2017-08-23T00:03:07.441Z,1017.1
2017-08-23T00:04:08.842Z,1017.1
2017-08-23T00:05:10.220Z,1017.1
2017-08-23T00:06:11.618Z,1017.1
2017-08-23T00:07:13.004Z,1017.1
2017-08-23T00:08:14.425Z,1017.1
2017-08-23T00:09:15.779Z,1017.1
2017-08-23T00:10:17.183Z,1017.0
2017-08-23T00:11:18.559Z,1017.1
2017-08-23T00:12:19.965Z,1017.1
2017-08-23T00:13:21.342Z,1017.1
2017-08-23T00:14:22.731Z,1017.1
2017-08-23T00:15:24.106Z,1017.1
2017-08-23T00:16:25.526Z,1017.1
2017-08-23T00:17:26.901Z,1017.1
2017-08-23T00:18:28.303Z,1017.0
2017-08-23T00:19:29.682Z,1017.0
2017-08-23T00:20:31.083Z,1017.0
2017-08-23T00:21:32.461Z,1017.0
2017-08-23T00:22:33.861Z,1017.0
2017-08-23T00:23:35.238Z,1017.0
2017-08-23T00:24:36.650Z,1017.0
2017-08-23T00:25:38.034Z,1017.0
2017-08-23T00:26:39.422Z,1017.0
2017-08-23T00:27:40.803Z,1017.0
2017-08-23T00:28:42.202Z,1017.0
2017-08-23T00:29:43.582Z,1017.0
2017-08-23T00:30:44.988Z,1017.0
2017-08-23T00:31:46.364Z,1017.0
2017-08-23T00:32:47.760Z,1017.0
2017-08-23T00:33:49.138Z,1017.0
2017-08-23T00:34:50.548Z,1017.0
2017-08-23T00:35:51.938Z,1017.0
2017-08-23T00:36:53.428Z,1017.0
2017-08-23T00:37:54.820Z,1017.0
2017-08-23T00:38:56.201Z,1017.0
2017-08-23T00:39:57.579Z,1017.0
2017-08-23T00:40:58.982Z,1017.0
2017-08-23T00:42:00.357Z,1017.0
2017-08-23T00:43:01.761Z,1017.0
2017-08-23T00:44:03.156Z,1017.0
2017-08-23T00:45:04.547Z,1016.9
2017-08-23T00:46:05.917Z,1016.9
2017-08-23T00:47:07.320Z,1016.9
2017-08-23T00:48:08.711Z,1016.9
2017-08-23T00:49:10.099Z,1017.0
2017-08-23T00:50:11.487Z,1016.9
2017-08-23T00:51:12.876Z,1016.9
2017-08-23T00:52:14.267Z,1016.9
2017-08-23T00:53:15.658Z,1016.9
2017-08-23T00:54:17.042Z,1016.9
2017-08-23T00:55:18.442Z,1016.9
2017-08-23T00:56:19.821Z,1016.9
2017-08-23T00:57:21.220Z,1016.9
2017-08-23T00:58:22.608Z,1016.9
2017-08-23T00:59:23.998Z,1016.9
2017-08-23T01:00:25.392Z,1016.9
2017-08-23T01:01:26.777Z,1016.8
2017-08-23T01:02:28.159Z,1016.8
2017-08-23T01:03:29.557Z,1016.9
2017-08-23T01:04:31.033Z,1016.8
2017-08-23T01:05:32.437Z,1016.8
2017-08-23T01:06:33.816Z,1016.8
2017-08-23T01:07:35.223Z,1016.8
2017-08-23T01:08:36.594Z,1016.8
2017-08-23T01:09:38.005Z,1016.8
2017-08-23T01:10:39.383Z,1016.8
2017-08-23T01:11:40.883Z,1016.8
2017-08-23T01:12:42.262Z,1016.9
2017-08-23T01:13:43.660Z,1016.9
2017-08-23T01:14:45.036Z,1016.9
2017-08-23T01:15:46.444Z,1016.9
2017-08-23T01:16:47.822Z,1016.9
2017-08-23T01:17:49.219Z,1016.9
2017-08-23T01:18:50.613Z,1017.0
2017-08-23T01:19:52.102Z,1016.9
2017-08-23T01:20:53.478Z,1017.0
2017-08-23T01:21:54.882Z,1017.0
2017-08-23T01:22:56.256Z,1016.9
2017-08-23T01:23:57.660Z,1017.0
2017-08-23T01:24:59.036Z,1016.9
2017-08-23T01:26:00.440Z,1016.9
2017-08-23T01:27:01.815Z,1017.0
2017-08-23T01:28:03.219Z,1016.9
2017-08-23T01:29:04.593Z,1016.9
2017-08-23T01:30:05.999Z,1017.0
2017-08-23T01:31:07.375Z,1017.0
2017-08-23T01:32:08.778Z,1017.0
2017-08-23T01:33:10.163Z,1016.9
2017-08-23T01:34:11.558Z,1016.9
2017-08-23T01:35:12.937Z,1016.9
2017-08-23T01:36:14.337Z,1016.9
2017-08-23T01:37:15.715Z,1016.9
2017-08-23T01:38:17.118Z,1016.9
2017-08-23T01:39:18.501Z,1016.9
2017-08-23T01:40:19.898Z,1016.9
2017-08-23T01:41:21.277Z,1016.9
2017-08-23T01:42:22.685Z,1016.9
2017-08-23T01:43:24.057Z,1016.9
2017-08-23T01:44:25.456Z,1016.9
2017-08-23T01:45:26.833Z,1016.9
2017-08-23T01:46:28.235Z,1016.8
2017-08-23T01:47:29.616Z,1016.8
2017-08-23T01:48:31.021Z,1016.8
2017-08-23T01:49:32.414Z,1016.8
2017-08-23T01:50:33.798Z,1016.8
2017-08-23T01:51:35.175Z,1016.8
2017-08-23T01:52:36.584Z,1016.8
2017-08-23T01:53:37.956Z,1016.8
2017-08-23T01:54:39.359Z,1016.8
2017-08-23T01:55:40.737Z,1016.8
2017-08-23T01:56:42.138Z,1016.8
2017-08-23T01:57:43.510Z,1016.8
2017-08-23T01:58:44.916Z,1016.8
2017-08-23T01:59:46.291Z,1016.8
2017-08-23T02:00:47.696Z,1016.8
2017-08-23T02:01:49.073Z,1016.8
2017-08-23T02:02:50.484Z,1016.8
2017-08-23T02:03:51.858Z,1016.8
2017-08-23T02:04:53.250Z,1016.7
2017-08-23T02:05:54.627Z,1016.8
2017-08-23T02:06:56.033Z,1016.7
2017-08-23T02:07:57.406Z,1016.7
2017-08-23T02:08:58.812Z,1016.8
2017-08-23T02:10:00.186Z,1016.7
2017-08-23T02:11:01.606Z,1016.7
2017-08-23T02:12:02.968Z,1016.7
2017-08-23T02:13:04.372Z,1016.7
2017-08-23T02:14:05.749Z,1016.7
2017-08-23T02:15:07.150Z,1016.7
2017-08-23T02:16:08.528Z,1016.7
2017-08-23T02:17:09.930Z,1016.7
2017-08-23T02:18:11.305Z,1016.7
2017-08-23T02:19:12.714Z,1016.7
2017-08-23T02:20:14.090Z,1016.7
2017-08-23T02:21:15.492Z,1016.7
2017-08-23T02:22:16.885Z,1016.7
2017-08-23T02:23:18.373Z,1016.7
2017-08-23T02:24:19.748Z,1016.7
2017-08-23T02:25:21.152Z,1016.7
2017-08-23T02:26:22.526Z,1016.7
2017-08-23T02:27:23.931Z,1016.7
2017-08-23T02:28:25.308Z,1016.7
2017-08-23T02:29:26.713Z,1016.6
2017-08-23T02:30:28.088Z,1016.6
2017-08-23T02:31:29.496Z,1016.6
2017-08-23T02:32:30.871Z,1016.6
2017-08-23T02:33:32.245Z,1016.6
2017-08-23T02:34:33.627Z,1016.6
2017-08-23T02:35:35.050Z,1016.6
2017-08-23T02:36:36.440Z,1016.5
2017-08-23T02:37:37.830Z,1016.6
2017-08-23T02:38:39.204Z,1016.6
2017-08-23T02:39:40.611Z,1016.6
2017-08-23T02:40:41.986Z,1016.6
2017-08-23T02:41:43.389Z,1016.6
2017-08-23T02:42:44.765Z,1016.5
2017-08-23T02:43:46.173Z,1016.5
2017-08-23T02:44:47.551Z,1016.5
2017-08-23T02:45:48.952Z,1016.5
2017-08-23T02:46:50.322Z,1016.5
2017-08-23T02:47:51.727Z,1016.5
2017-08-23T02:48:53.103Z,1016.4
2017-08-23T02:49:54.506Z,1016.4
2017-08-23T02:50:55.891Z,1016.5
2017-08-23T02:51:57.349Z,1016.4
2017-08-23T02:52:58.783Z,1016.4
2017-08-23T02:54:00.170Z,1016.4
2017-08-23T02:55:01.543Z,1016.4
2017-08-23T02:56:02.957Z,1016.4
2017-08-23T02:57:04.330Z,1016.4
2017-08-23T02:58:05.737Z,1016.4
2017-08-23T02:59:07.119Z,1016.4
2017-08-23T03:00:08.610Z,1016.3
2017-08-23T03:01:09.984Z,1016.4
2017-08-23T03:02:11.390Z,1016.3
2017-08-23T03:03:12.762Z,1016.3
2017-08-23T03:04:14.172Z,1016.3
2017-08-23T03:05:15.549Z,1016.3
2017-08-23T03:06:16.949Z,1016.3
2017-08-23T03:07:18.324Z,1016.3
2017-08-23T03:08:19.728Z,1016.3
2017-08-23T03:09:21.106Z,1016.3
2017-08-23T03:10:22.544Z,1016.3
2017-08-23T03:11:23.899Z,1016.3
2017-08-23T03:12:25.387Z,1016.3
2017-08-23T03:13:26.771Z,1016.3
2017-08-23T03:14:28.169Z,1016.3
2017-08-23T03:15:29.545Z,1016.3
2017-08-23T03:16:30.946Z,1016.3
2017-08-23T03:17:32.326Z,1016.3
2017-08-23T03:18:33.728Z,1016.3
2017-08-23T03:19:35.106Z,1016.3
2017-08-23T03:20:36.510Z,1016.3
2017-08-23T03:21:37.894Z,1016.3
2017-08-23T03:22:39.288Z,1016.2
2017-08-23T03:23:40.664Z,1016.2
2017-08-23T03:24:42.068Z,1016.3
2017-08-23T03:25:43.451Z,1016.2
2017-08-23T03:26:44.847Z,1016.2
2017-08-23T03:27:46.231Z,1016.3
2017-08-23T03:28:47.626Z,1016.2
2017-08-23T03:29:49.007Z,1016.2
2017-08-23T03:30:50.426Z,1016.3
2017-08-23T03:31:51.790Z,1016.2
2017-08-23T03:32:53.186Z,1016.2
2017-08-23T03:33:54.562Z,1016.2
2017-08-23T03:34:55.969Z,1016.2
2017-08-23T03:35:57.347Z,1016.2
2017-08-23T03:36:58.727Z,1016.2
2017-08-23T03:38:00.111Z,1016.2
2017-08-23T03:39:01.527Z,1016.2
2017-08-23T03:40:02.905Z,1016.2
2017-08-23T03:41:04.307Z,1016.2
2017-08-23T03:42:05.678Z,1016.2
2017-08-23T03:43:07.082Z,1016.2
2017-08-23T03:44:08.527Z,1016.2
2017-08-23T03:45:09.902Z,1016.2
2017-08-23T03:46:11.307Z,1016.2
2017-08-23T03:47:12.697Z,1016.3
2017-08-23T03:48:14.085Z,1016.3
2017-08-23T03:49:15.467Z,1016.2
2017-08-23T03:50:16.865Z,1016.2
2017-08-23T03:51:18.238Z,1016.2
2017-08-23T03:52:19.617Z,1016.2
2017-08-23T03:53:20.993Z,1016.2
2017-08-23T03:54:22.432Z,1016.2
2017-08-23T03:55:23.801Z,1016.2
2017-08-23T03:56:25.203Z,1016.2
2017-08-23T03:57:26.582Z,1016.2
2017-08-23T03:58:27.989Z,1016.1
2017-08-23T03:59:29.365Z,1016.1
2017-08-23T04:00:30.767Z,1016.1
2017-08-23T04:01:32.144Z,1016.1
2017-08-23T04:02:33.543Z,1016.2
2017-08-23T04:03:34.922Z,1016.2
2017-08-23T04:04:36.326Z,1016.1
2017-08-23T04:05:37.701Z,1016.1
2017-08-23T04:06:39.106Z,1016.1
2017-08-23T04:07:40.477Z,1016.1
2017-08-23T04:08:41.881Z,1016.0
2017-08-23T04:09:43.263Z,1016.0
2017-08-23T04:10:44.654Z,1016.0
2017-08-23T04:11:46.031Z,1015.9
2017-08-23T04:12:47.443Z,1016.0
2017-08-23T04:13:48.818Z,1016.0
2017-08-23T04:14:50.199Z,1015.9
2017-08-23T04:15:51.576Z,1016.0
2017-08-23T04:16:53.432Z,1016.0
2017-08-23T04:17:54.813Z,1016.0
2017-08-23T04:18:56.300Z,1016.0
2017-08-23T04:19:57.670Z,1016.0
2017-08-23T04:20:59.072Z,1016.0
2017-08-23T04:22:00.453Z,1016.0
2017-08-23T04:23:01.857Z,1016.0
2017-08-23T04:24:03.232Z,1016.0
2017-08-23T04:25:04.632Z,1016.0
2017-08-23T04:26:06.019Z,1016.0
2017-08-23T04:27:07.438Z,1016.0
2017-08-23T04:28:08.880Z,1016.0
2017-08-23T04:29:10.296Z,1016.0
2017-08-23T04:30:11.672Z,1016.0
2017-08-23T04:31:13.075Z,1016.0
2017-08-23T04:32:14.465Z,1016.0
2017-08-23T04:33:15.959Z,1016.0
2017-08-23T04:34:17.336Z,1015.9
2017-08-23T04:35:18.731Z,1015.9
2017-08-23T04:36:20.111Z,1015.9
2017-08-23T04:37:21.553Z,1015.9
2017-08-23T04:38:22.986Z,1016.0
2017-08-23T04:39:24.470Z,1015.9
2017-08-23T04:40:25.890Z,1016.0
2017-08-23T04:41:27.273Z,1016.0
2017-08-23T04:42:28.659Z,1016.0
2017-08-23T04:43:30.061Z,1015.9
2017-08-23T04:44:31.444Z,1015.9
2017-08-23T04:45:32.846Z,1015.9
2017-08-23T04:46:34.219Z,1015.9
2017-08-23T04:47:35.619Z,1015.9
2017-08-23T04:48:36.988Z,1015.9
2017-08-23T04:49:38.407Z,1015.9
2017-08-23T04:50:39.795Z,1015.9
2017-08-23T04:51:41.308Z,1015.9
2017-08-23T04:52:42.666Z,1015.9
2017-08-23T04:53:44.063Z,1015.9
2017-08-23T04:54:45.441Z,1015.9
2017-08-23T04:55:46.838Z,1016.0
2017-08-23T04:56:48.218Z,1015.9
2017-08-23T04:57:49.619Z,1016.0
2017-08-23T04:58:51.002Z,1016.0
2017-08-23T04:59:52.394Z,1016.0
2017-08-23T05:00:53.776Z,1015.9
2017-08-23T05:01:55.176Z,1016.0
2017-08-23T05:02:56.555Z,1016.0
2017-08-23T05:03:57.953Z,1016.0
2017-08-23T05:04:59.334Z,1015.9
2017-08-23T05:06:00.846Z,1015.9
2017-08-23T05:07:02.223Z,1015.9
2017-08-23T05:08:03.623Z,1015.9
2017-08-23T05:09:05.001Z,1015.9
2017-08-23T05:10:06.407Z,1015.9
2017-08-23T05:11:07.788Z,1015.9
2017-08-23T05:12:09.279Z,1015.9
2017-08-23T05:13:10.658Z,1015.9
2017-08-23T05:14:12.071Z,1015.9
2017-08-23T05:15:13.455Z,1015.9
2017-08-23T05:16:14.947Z,1015.9
2017-08-23T05:17:16.324Z,1016.0
2017-08-23T05:18:17.728Z,1015.9
2017-08-23T05:19:19.102Z,1015.9
2017-08-23T05:20:20.497Z,1015.9
2017-08-23T05:21:21.882Z,1015.9
2017-08-23T05:22:23.279Z,1015.9
2017-08-23T05:23:24.664Z,1015.9
2017-08-23T05:24:26.065Z,1016.0
2017-08-23T05:25:27.442Z,1016.0
2017-08-23T05:26:28.844Z,1016.0
2017-08-23T05:27:30.227Z,1016.0
2017-08-23T05:28:31.619Z,1016.0
2017-08-23T05:29:33.006Z,1016.1
2017-08-23T05:30:34.398Z,1016.1
2017-08-23T05:31:35.778Z,1016.1
2017-08-23T05:32:37.190Z,1016.1
2017-08-23T05:33:38.576Z,1016.2
2017-08-23T05:34:40.064Z,1016.2
2017-08-23T05:35:41.446Z,1016.3
2017-08-23T05:36:42.849Z,1016.3
2017-08-23T05:37:44.233Z,1016.3
2017-08-23T05:38:45.619Z,1016.2
2017-08-23T05:39:46.995Z,1016.2
2017-08-23T05:40:48.406Z,1016.1
2017-08-23T05:41:49.791Z,1016.2
2017-08-23T05:42:51.283Z,1016.1
2017-08-23T05:43:52.660Z,1016.2
2017-08-23T05:44:54.082Z,1016.2
2017-08-23T05:45:55.468Z,1016.1
2017-08-23T05:46:56.941Z,1016.2
2017-08-23T05:47:58.309Z,1016.2
2017-08-23T05:48:59.720Z,1016.1
2017-08-23T05:50:01.103Z,1016.1
2017-08-23T05:51:02.503Z,1016.1
2017-08-23T05:52:03.884Z,1016.2
2017-08-23T05:53:05.282Z,1016.2
2017-08-23T05:54:06.661Z,1016.2
2017-08-23T05:55:08.166Z,1016.2
2017-08-23T05:56:09.550Z,1016.3
2017-08-23T05:57:11.053Z,1016.4
2017-08-23T05:58:12.431Z,1016.3
2017-08-23T05:59:13.936Z,1016.3
2017-08-23T06:00:15.310Z,1016.4
2017-08-23T06:01:16.713Z,1016.4
2017-08-23T06:02:18.089Z,1016.5
2017-08-23T06:03:19.490Z,1016.5
2017-08-23T06:04:20.875Z,1016.5
2017-08-23T06:05:22.373Z,1016.6
2017-08-23T06:06:23.753Z,1016.5
2017-08-23T06:07:25.152Z,1016.5
2017-08-23T06:08:26.532Z,1016.6
2017-08-23T06:09:28.036Z,1016.6
2017-08-23T06:10:29.419Z,1016.6
2017-08-23T06:11:30.913Z,1016.6
2017-08-23T06:12:32.300Z,1016.6
2017-08-23T06:13:33.796Z,1016.6
2017-08-23T06:14:35.190Z,1016.8
2017-08-23T06:15:36.677Z,1016.9
2017-08-23T06:16:38.061Z,1017.0
2017-08-23T06:17:39.558Z,1017.0
2017-08-23T06:18:40.941Z,1017.1
2017-08-23T06:19:42.439Z,1017.2
2017-08-23T06:20:43.825Z,1017.2
2017-08-23T06:21:45.321Z,1017.3
2017-08-23T06:22:46.702Z,1017.2
2017-08-23T06:23:48.106Z,1017.2
2017-08-23T06:24:49.491Z,1017.3
2017-08-23T06:25:50.986Z,1017.3
2017-08-23T06:26:52.394Z,1017.3
2017-08-23T06:27:53.867Z,1017.3
2017-08-23T06:28:55.252Z,1017.4
2017-08-23T06:29:56.750Z,1017.6
2017-08-23T06:30:58.142Z,1017.7
2017-08-23T06:31:59.630Z,1018.4
2017-08-23T06:33:01.019Z,1018.5
2017-08-23T06:34:02.512Z,1018.5
2017-08-23T06:35:03.898Z,1018.7
2017-08-23T06:36:05.394Z,1019.0
2017-08-23T06:37:06.778Z,1019.5
2017-08-23T06:38:08.279Z,1019.3
2017-08-23T06:39:09.662Z,1019.0
2017-08-23T06:40:11.157Z,1018.6
2017-08-23T06:41:12.553Z,1018.5
2017-08-23T06:42:14.039Z,1018.8
2017-08-23T06:43:15.421Z,1018.8
2017-08-23T06:44:16.921Z,1018.6
2017-08-23T06:45:18.332Z,1019.0
2017-08-23T06:46:19.802Z,1019.1
2017-08-23T06:47:21.191Z,1018.7
2017-08-23T06:48:22.696Z,1018.4
2017-08-23T06:49:24.111Z,1018.1
2017-08-23T06:50:25.577Z,1018.1
2017-08-23T06:51:26.963Z,1018.1
2017-08-23T06:52:28.447Z,1018.1
2017-08-23T06:53:29.836Z,1018.2
2017-08-23T06:54:31.331Z,1018.2
2017-08-23T06:55:32.718Z,1018.3
2017-08-23T06:56:34.215Z,1018.3
2017-08-23T06:57:35.599Z,1018.3
2017-08-23T06:58:37.098Z,1018.3
2017-08-23T06:59:38.483Z,1018.4
2017-08-23T07:00:39.976Z,1018.4
2017-08-23T07:01:41.363Z,1018.8
2017-08-23T07:02:42.864Z,1019.3
2017-08-23T07:03:44.263Z,1019.8
2017-08-23T07:04:45.746Z,1020.1
2017-08-23T07:05:47.139Z,1020.2
2017-08-23T07:06:48.639Z,1020.6
2017-08-23T07:07:50.024Z,1022.1
2017-08-23T07:08:51.528Z,1024.7
2017-08-23T07:09:52.918Z,1025.6
2017-08-23T07:10:54.389Z,1023.6
2017-08-23T07:11:55.783Z,1021.5
2017-08-23T07:12:57.271Z,1020.5
2017-08-23T07:13:58.663Z,1020.1
2017-08-23T07:15:00.150Z,1020.0
2017-08-23T07:16:01.540Z,1019.6
2017-08-23T07:17:03.038Z,1019.3
2017-08-23T07:18:04.425Z,1019.1
2017-08-23T07:19:05.915Z,1019.0
2017-08-23T07:20:07.299Z,1019.1
2017-08-23T07:21:08.797Z,1019.0
2017-08-23T07:22:10.220Z,1019.2
2017-08-23T07:23:11.678Z,1019.3
2017-08-23T07:24:13.069Z,1019.2
2017-08-23T07:25:14.568Z,1019.3
2017-08-23T07:26:15.953Z,1019.5
2017-08-23T07:27:17.450Z,1019.6
2017-08-23T07:28:18.835Z,1020.0
2017-08-23T07:29:20.344Z,1020.4
2017-08-23T07:30:21.740Z,1020.8
2017-08-23T07:31:23.208Z,1020.9
2017-08-23T07:32:24.597Z,1020.7
2017-08-23T07:33:26.090Z,1020.5
2017-08-23T07:34:27.501Z,1020.3
2017-08-23T07:35:28.979Z,1019.8
2017-08-23T07:36:30.371Z,1019.4
2017-08-23T07:37:31.852Z,1019.6
2017-08-23T07:38:33.245Z,1019.4
2017-08-23T07:39:34.728Z,1019.6
2017-08-23T07:40:36.126Z,1019.3
2017-08-23T07:41:37.625Z,1019.3
2017-08-23T07:42:39.005Z,1019.4
2017-08-23T07:43:40.505Z,1019.4
2017-08-23T07:44:41.894Z,1019.4
2017-08-23T07:45:43.383Z,1019.4
2017-08-23T07:46:44.773Z,1018.8
2017-08-23T07:47:46.279Z,1019.2
2017-08-23T07:48:47.661Z,1019.0
2017-08-23T07:49:49.213Z,1018.9
2017-08-23T07:50:50.595Z,1019.2
2017-08-23T07:51:52.076Z,1019.3
2017-08-23T07:52:53.496Z,1019.3
2017-08-23T07:53:54.910Z,1019.5
2017-08-23T07:54:56.295Z,1019.6
2017-08-23T07:55:57.811Z,1019.4
2017-08-23T07:56:59.205Z,1019.1
2017-08-23T07:58:00.673Z,1018.9
2017-08-23T07:59:02.064Z,1018.9
2017-08-23T08:00:03.556Z,1019.0
2017-08-23T08:01:04.947Z,1019.0
2017-08-23T08:02:06.436Z,1018.7
2017-08-23T08:03:07.827Z,1019.0
2017-08-23T08:04:09.322Z,1018.9
2017-08-23T08:05:10.710Z,1019.0
2017-08-23T08:06:12.206Z,1018.9
2017-08-23T08:07:13.818Z,1019.2
2017-08-23T08:08:15.290Z,1019.4
2017-08-23T08:09:16.686Z,1019.6
2017-08-23T08:10:18.281Z,1019.6
2017-08-23T08:11:19.677Z,1019.5
2017-08-23T08:12:21.170Z,1019.5
2017-08-23T08:13:22.709Z,1019.6
2017-08-23T08:14:24.148Z,1019.4
2017-08-23T08:15:25.590Z,1019.3
2017-08-23T08:16:27.032Z,1019.4
2017-08-23T08:17:28.419Z,1019.4
2017-08-23T08:18:30.095Z,1019.4
2017-08-23T08:19:31.455Z,1019.1
2017-08-23T08:20:33.284Z,1019.1
2017-08-23T08:21:34.676Z,1019.1
2017-08-23T08:22:36.258Z,1019.1
2017-08-23T08:23:38.507Z,1018.8
2017-08-23T08:24:40.344Z,1018.8
2017-08-23T08:25:41.746Z,1018.8
2017-08-23T08:26:43.174Z,1018.7
2017-08-23T08:27:44.568Z,1018.7
2017-08-23T08:28:46.066Z,1018.5
2017-08-23T08:29:47.476Z,1018.1
2017-08-23T08:30:48.936Z,1018.5
2017-08-23T08:31:50.454Z,1018.9
2017-08-23T08:32:51.932Z,1018.9
2017-08-23T08:33:53.323Z,1018.8
2017-08-23T08:34:54.805Z,1018.8
2017-08-23T08:35:56.196Z,1018.8
2017-08-23T08:36:57.701Z,1018.8
2017-08-23T08:37:59.087Z,1018.7
2017-08-23T08:39:00.564Z,1018.7
2017-08-23T08:40:01.955Z,1018.7
2017-08-23T08:41:03.440Z,1018.7
2017-08-23T08:42:04.854Z,1018.7
2017-08-23T08:43:06.327Z,1018.7
2017-08-23T08:44:07.730Z,1018.7
2017-08-23T08:45:09.221Z,1018.7
2017-08-23T08:46:10.613Z,1018.6
2017-08-23T08:47:12.095Z,1018.6
2017-08-23T08:48:13.502Z,1018.5
2017-08-23T08:49:14.970Z,1018.4
2017-08-23T08:50:16.372Z,1018.3
2017-08-23T08:51:17.858Z,1018.2
2017-08-23T08:52:19.328Z,1018.1
2017-08-23T08:53:20.740Z,1018.0
2017-08-23T08:54:22.131Z,1018.0
2017-08-23T08:55:23.624Z,1018.4
2017-08-23T08:56:25.020Z,1018.9
2017-08-23T08:57:26.506Z,1018.8
2017-08-23T08:58:27.900Z,1018.4
2017-08-23T08:59:29.395Z,1018.2
2017-08-23T09:00:30.786Z,1018.2
2017-08-23T09:01:32.270Z,1018.1
2017-08-23T09:02:33.661Z,1018.0
2017-08-23T09:03:35.150Z,1018.0
2017-08-23T09:04:36.549Z,1018.0
2017-08-23T09:05:38.037Z,1018.0
2017-08-23T09:06:39.453Z,1018.0
2017-08-23T09:07:40.914Z,1018.0
2017-08-23T09:08:42.311Z,1017.9
2017-08-23T09:09:43.795Z,1017.8
2017-08-23T09:10:45.197Z,1017.8
2017-08-23T09:11:46.692Z,1017.7
2017-08-23T09:12:48.118Z,1017.6
2017-08-23T09:13:49.559Z,1017.6
2017-08-23T09:14:50.952Z,1017.6
2017-08-23T09:15:52.462Z,1017.6
2017-08-23T09:16:53.884Z,1017.5
2017-08-23T09:17:55.324Z,1017.5
2017-08-23T09:18:56.726Z,1017.5
2017-08-23T09:19:58.205Z,1017.4
2017-08-23T09:20:59.601Z,1017.3
2017-08-23T09:22:01.088Z,1017.2
2017-08-23T09:23:02.492Z,1017.1
2017-08-23T09:24:03.987Z,1017.1
2017-08-23T09:25:05.376Z,1017.1
2017-08-23T09:26:06.851Z,1017.0
2017-08-23T09:27:08.248Z,1017.0
2017-08-23T09:28:09.766Z,1016.9
2017-08-23T09:29:11.160Z,1016.8
2017-08-23T09:30:12.616Z,1016.9
2017-08-23T09:31:14.016Z,1016.8
2017-08-23T09:32:15.516Z,1016.8
2017-08-23T09:33:16.912Z,1016.8
2017-08-23T09:34:18.379Z,1016.7
2017-08-23T09:35:19.927Z,1016.7
2017-08-23T09:36:21.367Z,1016.7
2017-08-23T09:37:22.757Z,1016.9
2017-08-23T09:38:24.252Z,1016.9
2017-08-23T09:39:25.654Z,1016.9
2017-08-23T09:40:27.131Z,1017.0
2017-08-23T09:41:28.851Z,1017.3
2017-08-23T09:42:30.322Z,1018.5
2017-08-23T09:43:31.718Z,1018.3
2017-08-23T09:44:33.201Z,1017.4
2017-08-23T09:45:34.600Z,1017.3
2017-08-23T09:46:36.081Z,1017.1
2017-08-23T09:47:37.478Z,1016.9
2017-08-23T09:48:38.978Z,1016.9
2017-08-23T09:49:40.370Z,1017.1
2017-08-23T09:50:41.847Z,1017.5
2017-08-23T09:51:43.242Z,1017.3
2017-08-23T09:52:44.728Z,1016.9
2017-08-23T09:53:46.126Z,1016.8
2017-08-23T09:54:47.613Z,1016.7
2017-08-23T09:55:49.010Z,1016.9
2017-08-23T09:56:50.492Z,1016.9
2017-08-23T09:57:51.906Z,1016.6
2017-08-23T09:58:53.391Z,1016.6
2017-08-23T09:59:54.785Z,1016.5
2017-08-23T10:00:56.262Z,1016.5
2017-08-23T10:01:57.688Z,1016.3
2017-08-23T10:02:59.139Z,1016.3
2017-08-23T10:04:00.550Z,1016.2
2017-08-23T10:05:02.023Z,1016.2
2017-08-23T10:06:03.418Z,1016.2
2017-08-23T10:07:04.903Z,1016.1
2017-08-23T10:08:06.299Z,1016.1
2017-08-23T10:09:07.788Z,1016.1
2017-08-23T10:10:09.191Z,1016.1
2017-08-23T10:11:10.685Z,1016.0
2017-08-23T10:12:12.097Z,1016.0
2017-08-23T10:13:13.549Z,1015.9
2017-08-23T10:14:14.943Z,1016.0
2017-08-23T10:15:16.432Z,1016.0
2017-08-23T10:16:17.825Z,1015.9
2017-08-23T10:17:19.312Z,1015.9
2017-08-23T10:18:20.711Z,1015.9
2017-08-23T10:19:22.194Z,1016.0
2017-08-23T10:20:23.589Z,1015.8
2017-08-23T10:21:25.088Z,1015.8
2017-08-23T10:22:26.484Z,1015.7
2017-08-23T10:23:27.962Z,1015.8
2017-08-23T10:24:29.355Z,1016.0
2017-08-23T10:25:30.846Z,1016.1
2017-08-23T10:26:32.234Z,1016.2
2017-08-23T10:27:33.769Z,1016.3
2017-08-23T10:28:35.229Z,1016.4
2017-08-23T10:29:36.710Z,1016.5
2017-08-23T10:30:38.108Z,1016.5
2017-08-23T10:31:39.591Z,1016.3
2017-08-23T10:32:41.009Z,1016.2
2017-08-23T10:33:42.471Z,1016.4
2017-08-23T10:34:43.871Z,1016.2
2017-08-23T10:35:45.388Z,1015.9
2017-08-23T10:36:46.822Z,1016.0
2017-08-23T10:37:48.236Z,1016.0
2017-08-23T10:38:49.637Z,1016.1
2017-08-23T10:39:51.119Z,1016.0
2017-08-23T10:40:52.511Z,1015.6
2017-08-23T10:41:54.000Z,1015.5
2017-08-23T10:42:55.522Z,1016.1
2017-08-23T10:43:56.984Z,1016.1
2017-08-23T10:44:58.381Z,1015.8
2017-08-23T10:45:59.866Z,1016.0
2017-08-23T10:47:01.266Z,1015.9
2017-08-23T10:48:02.747Z,1015.9
2017-08-23T10:49:04.143Z,1015.8
2017-08-23T10:50:05.629Z,1015.9
2017-08-23T10:51:07.024Z,1015.8
2017-08-23T10:52:08.510Z,1015.7
2017-08-23T10:53:09.911Z,1015.6
2017-08-23T10:54:11.390Z,1015.6
2017-08-23T10:55:12.790Z,1015.6
2017-08-23T10:56:14.273Z,1015.6
2017-08-23T10:57:15.681Z,1015.5
2017-08-23T10:58:17.156Z,1015.4
2017-08-23T10:59:18.553Z,1015.3
2017-08-23T11:00:20.036Z,1015.4
2017-08-23T11:01:21.432Z,1015.4
2017-08-23T11:02:22.922Z,1015.4
2017-08-23T11:03:24.316Z,1015.3
2017-08-23T11:04:25.804Z,1015.3
2017-08-23T11:05:27.209Z,1015.3
2017-08-23T11:06:28.686Z,1015.3
2017-08-23T11:07:30.085Z,1015.3
2017-08-23T11:08:31.563Z,1015.2
2017-08-23T11:09:32.986Z,1015.1
2017-08-23T11:10:34.455Z,1015.1
2017-08-23T11:11:35.855Z,1015.0
2017-08-23T11:12:37.345Z,1015.1
2017-08-23T11:13:38.733Z,1015.0
2017-08-23T11:14:40.213Z,1015.0
2017-08-23T11:15:41.607Z,1015.0
2017-08-23T11:16:43.095Z,1014.9
2017-08-23T11:17:44.489Z,1014.8
2017-08-23T11:18:45.980Z,1014.9
2017-08-23T11:19:47.374Z,1014.9
2017-08-23T11:20:48.860Z,1015.1
2017-08-23T11:21:50.261Z,1015.1
2017-08-23T11:22:51.756Z,1015.0
2017-08-23T11:23:53.177Z,1014.9
2017-08-23T11:24:54.664Z,1015.0
2017-08-23T11:25:56.062Z,1015.0
2017-08-23T11:26:57.505Z,1014.9
2017-08-23T11:27:58.898Z,1014.9
2017-08-23T11:29:00.392Z,1014.9
2017-08-23T11:30:01.785Z,1014.9
2017-08-23T11:31:03.269Z,1014.9
2017-08-23T11:32:04.687Z,1015.0
2017-08-23T11:33:06.151Z,1014.9
2017-08-23T11:34:07.547Z,1014.9
2017-08-23T11:35:09.034Z,1015.0
2017-08-23T11:36:10.433Z,1015.0
2017-08-23T11:37:11.915Z,1014.9
2017-08-23T11:38:13.313Z,1014.9
2017-08-23T11:39:14.795Z,1014.9
2017-08-23T11:40:16.239Z,1014.8
2017-08-23T11:41:17.726Z,1014.8
2017-08-23T11:42:19.042Z,1014.8
2017-08-23T11:43:20.460Z,1014.8
2017-08-23T11:44:21.853Z,1014.6
2017-08-23T11:45:23.405Z,1014.7
2017-08-23T11:46:24.873Z,1014.6
2017-08-23T11:47:26.380Z,1014.6
2017-08-23T11:48:27.802Z,1014.6
2017-08-23T11:49:29.489Z,1014.5
2017-08-23T11:50:30.892Z,1014.6
2017-08-23T11:51:32.952Z,1014.7
2017-08-23T11:52:34.521Z,1014.7
2017-08-23T11:53:35.995Z,1014.7
2017-08-23T11:54:37.701Z,1014.7
2017-08-23T11:55:39.234Z,1014.6
2017-08-23T11:56:40.641Z,1014.6
2017-08-23T11:57:42.063Z,1014.5
2017-08-23T11:58:43.478Z,1014.5
2017-08-23T11:59:44.966Z,1014.5
2017-08-23T12:00:46.364Z,1014.5
2017-08-23T12:01:47.870Z,1014.4
2017-08-23T12:02:49.265Z,1014.3
2017-08-23T12:03:50.767Z,1014.4
2017-08-23T12:04:52.078Z,1014.4
2017-08-23T12:05:53.499Z,1014.4
2017-08-23T12:06:54.885Z,1014.4
2017-08-23T12:07:56.478Z,1014.3
2017-08-23T12:08:57.880Z,1014.3
2017-08-23T12:09:59.368Z,1014.3
2017-08-23T12:11:00.772Z,1014.3
2017-08-23T12:12:02.243Z,1014.3
2017-08-23T12:13:03.637Z,1014.3
2017-08-23T12:14:05.124Z,1014.2
2017-08-23T12:15:06.510Z,1014.2
2017-08-23T12:16:08.102Z,1014.2
2017-08-23T12:17:09.496Z,1014.3
2017-08-23T12:18:10.989Z,1014.3
2017-08-23T12:19:12.389Z,1014.2
2017-08-23T12:20:13.883Z,1014.2
2017-08-23T12:21:15.282Z,1014.2
2017-08-23T12:22:16.765Z,1014.2
2017-08-23T12:23:18.158Z,1014.2
2017-08-23T12:24:19.644Z,1014.2
2017-08-23T12:25:21.031Z,1014.2
2017-08-23T12:26:22.521Z,1014.2
2017-08-23T12:27:23.924Z,1014.2
2017-08-23T12:28:25.399Z,1014.2
2017-08-23T12:29:26.797Z,1014.2
2017-08-23T12:30:28.281Z,1014.2
2017-08-23T12:31:29.682Z,1014.1
2017-08-23T12:32:31.162Z,1014.1
2017-08-23T12:33:32.733Z,1014.1
2017-08-23T12:34:34.149Z,1014.1
2017-08-23T12:35:35.541Z,1014.1
2017-08-23T12:36:37.028Z,1014.1
2017-08-23T12:37:38.434Z,1014.2
2017-08-23T12:38:39.908Z,1014.2
2017-08-23T12:39:41.316Z,1014.2
2017-08-23T12:40:42.798Z,1014.2
2017-08-23T12:41:44.189Z,1014.1
2017-08-23T12:42:45.688Z,1014.2
2017-08-23T12:43:47.069Z,1014.2
2017-08-23T12:44:48.558Z,1014.1
2017-08-23T12:45:49.960Z,1014.1